Time;durP1;ratioP1;P1;durP2;ratioP2;P2;SDS_P1;SDS_P2;PMS_P1;PMS_P2;Temp;Humidity;BMP_temperature;BMP_pressure;BME280_temperature;BME280_humidity;BME280_pressure;Samples;Min_cycle;Max_cycle;Signal;HPM_P1;HPM_P2
2022/01/09 12:02:00;;;;;;;;;;;;;;;4.22;84.00;96038.56;4198309;27;10329;-69
2022/01/09 12:04:03;;;;;;;;;;;;;;;4.42;83.19;96039.75;4195386;28;5834;-69
2022/01/09 12:06:10;;;;;;;;;;;;;;;4.50;82.97;96031.03;4197190;28;5865;-71
2022/01/09 12:08:13;;;;;;;;;;;;;;;4.57;82.49;96031.97;4180302;28;5849;-68
2022/01/09 12:10:28;;;;;;;;;;;;;;;4.60;81.84;96032.41;4185390;28;5831;-68
2022/01/09 12:12:36;;;;;;;;;;;;;;;4.58;82.02;96030.97;4178084;28;5866;-68
2022/01/09 12:15:09;;;;;;;;;;;;;;;4.65;81.93;96026.69;4179227;28;5942;-69
2022/01/09 12:17:21;;;;;;;;;;;;;;;4.59;81.36;96022.94;4175258;28;5809;-71
2022/01/09 12:20:09;;;;;;;;;;;;;;;4.59;80.53;96025.56;4173673;28;5831;-71
2022/01/09 12:22:11;;;;;;;;;;;;;;;4.56;80.48;96025.09;4169428;28;5854;-71
2022/01/09 12:24:37;;;;;;;;;;;;;;;4.51;81.21;96024.78;4179756;28;5827;-71
2022/01/09 12:26:38;;;;;;;;;;;;;;;4.47;80.21;96015.66;4178423;28;5648;-71
2022/01/09 12:28:45;;;;;;;;;;;;;;;4.44;81.57;96016.03;4178003;28;7048;-71
2022/01/09 12:30:58;;;;;;;;;;;;;;;4.63;80.38;96011.13;4178139;28;5808;-71
2022/01/09 12:33:05;;;;;;;;;;;;;;;4.65;80.07;96003.94;4171558;28;5828;-71
2022/01/09 12:35:18;;;;;;;;;;;;;;;4.60;80.33;96005.44;4182306;28;6481;-70
2022/01/09 12:37:20;;;;;;;;;;;;;;;4.72;80.55;95998.78;4194878;28;5111;-71
2022/01/09 12:39:22;;;;;;;;;;;;;;;4.71;80.33;95997.16;4178451;28;5838;-69
2022/01/09 12:41:33;;;;;;;;;;;;;;;4.78;79.53;95997.28;4168049;28;6015;-72
2022/01/09 12:43:37;;;;;;;;;;;;;;;4.71;79.63;95996.34;4179083;28;5818;-72
2022/01/09 12:45:43;;;;;;;;;;;;;;;4.71;79.61;95989.31;4178745;28;6507;-72
2022/01/09 12:47:45;;;;;;;;;;;;;;;4.78;79.36;95986.81;4179694;28;6649;-73
2022/01/09 12:49:59;;;;;;;;;;;;;;;4.88;79.22;95993.44;4176662;28;5959;-73
2022/01/09 12:52:03;;;;;;;;;;;;;;;4.90;78.53;95994.06;4179799;28;5839;-73
2022/01/09 12:54:07;;;;;;;;;;;;;;;4.85;78.77;95987.72;4193752;28;5816;-71
2022/01/09 12:56:12;;;;;;;;;;;;;;;4.87;79.39;95988.34;4214065;28;5785;-71
2022/01/09 12:58:22;;;;;;;;;;;;;;;4.82;78.41;95977.59;4192228;28;5952;-70
2022/01/09 13:00:29;;;;;;;;;;;;;;;4.62;78.08;95972.84;4180246;28;5737;-70
2022/01/09 13:02:32;;;;;;;;;;;;;;;4.70;77.37;95973.78;4186772;28;5671;-71
2022/01/09 13:04:34;;;;;;;;;;;;;;;4.71;77.30;95975.41;4166792;28;5807;-71
2022/01/09 13:06:37;;;;;;;;;;;;;;;4.63;76.55;95974.47;4182120;28;5885;-72
2022/01/09 13:08:43;;;;;;;;;;;;;;;4.71;76.88;95970.16;4181670;28;5888;-73
2022/01/09 13:10:45;;;;;;;;;;;;;;;4.74;76.90;95972.41;4170616;28;5981;-72
2022/01/09 13:13:22;;;;;;;;;;;;;;;4.83;76.91;95974.78;4166570;28;5861;-72
2022/01/09 13:15:37;;;;;;;;;;;;;;;4.74;77.20;95964.56;4132199;28;5802;-71
2022/01/09 13:17:46;;;;;;;;;;;;;;;4.78;77.92;95965.88;4150194;28;5872;-72
2022/01/09 13:19:49;;;;;;;;;;;;;;;4.62;78.84;95966.78;4171018;28;5777;-71
2022/01/09 13:21:53;;;;;;;;;;;;;;;4.67;78.54;95965.28;4150604;28;5867;-71
2022/01/09 13:24:03;;;;;;;;;;;;;;;4.73;78.76;95961.13;4191603;28;5917;-71
2022/01/09 13:26:17;;;;;;;;;;;;;;;4.64;79.44;95975.28;4216256;28;5763;-74
2022/01/09 13:28:20;;;;;;;;;;;;;;;4.57;80.13;95961.28;4195356;28;5816;-72
2022/01/09 13:30:22;;;;;;;;;;;;;;;4.58;80.57;95966.34;4182593;28;5748;-72
2022/01/09 13:32:26;;;;;;;;;;;;;;;4.57;80.25;95974.38;4182066;28;5713;-71
2022/01/09 13:34:35;;;;;;;;;;;;;;;4.52;80.82;95985.34;4183462;28;5752;-72
2022/01/09 13:36:48;;;;;;;;;;;;;;;4.48;80.01;95981.47;4170553;28;5684;-71
2022/01/09 13:38:50;;;;;;;;;;;;;;;4.25;81.97;95978.84;4214375;28;5814;-72
2022/01/09 13:40:54;;;;;;;;;;;;;;;4.07;82.41;95984.34;4184135;28;5851;-73
2022/01/09 13:42:56;;;;;;;;;;;;;;;4.08;82.68;95991.22;4199238;28;5806;-72
2022/01/09 13:45:06;;;;;;;;;;;;;;;4.17;81.91;95980.69;4181876;28;5729;-73
2022/01/09 13:47:08;;;;;;;;;;;;;;;4.09;81.92;95978.97;4196590;28;5807;-71
2022/01/09 13:49:14;;;;;;;;;;;;;;;4.27;81.87;95989.94;4182954;28;5693;-70
2022/01/09 13:51:38;;;;;;;;;;;;;;;4.25;82.46;95988.50;4181165;28;6127;-72
2022/01/09 13:53:40;;;;;;;;;;;;;;;4.33;82.12;95988.44;4183841;28;5743;-72
2022/01/09 13:55:42;;;;;;;;;;;;;;;4.34;81.50;95990.06;4184009;28;5720;-72
2022/01/09 13:57:52;;;;;;;;;;;;;;;4.11;82.79;95984.00;4165868;28;5846;-72
2022/01/09 13:59:56;;;;;;;;;;;;;;;4.14;83.37;95979.25;4150826;28;5887;-72
2022/01/09 14:01:59;;;;;;;;;;;;;;;4.21;83.31;95995.06;4193580;28;5733;-72
2022/01/09 14:04:31;;;;;;;;;;;;;;;4.19;83.27;95983.94;4200209;28;5853;-72
2022/01/09 14:06:33;;;;;;;;;;;;;;;4.11;83.94;95981.41;4187404;28;5949;-72
2022/01/09 14:08:37;;;;;;;;;;;;;;;4.36;83.51;95972.41;4181903;28;7283;-72
2022/01/09 14:10:41;;;;;;;;;;;;;;;4.54;83.48;95980.78;4195860;28;5763;-72
2022/01/09 14:12:44;;;;;;;;;;;;;;;4.63;82.94;95973.66;4185959;28;5796;-72
2022/01/09 14:14:47;;;;;;;;;;;;;;;4.62;83.03;95972.84;4181149;28;5832;-72
2022/01/09 14:16:49;;;;;;;;;;;;;;;4.60;83.46;95974.81;4165599;28;5849;-72
2022/01/09 14:18:55;;;;;;;;;;;;;;;4.65;83.36;95967.28;4165665;28;5898;-73
2022/01/09 14:21:09;;;;;;;;;;;;;;;4.75;83.23;95972.25;4149110;28;5781;-73
2022/01/09 14:23:12;;;;;;;;;;;;;;;4.70;83.29;95971.16;4165411;28;5833;-71
2022/01/09 14:25:25;;;;;;;;;;;;;;;4.82;82.86;95977.59;4165536;28;5834;-72
2022/01/09 14:27:31;;;;;;;;;;;;;;;4.77;82.58;95977.31;4165268;28;5885;-72
2022/01/09 14:29:37;;;;;;;;;;;;;;;4.66;82.71;95982.00;4183195;28;5744;-71
2022/01/09 14:31:39;;;;;;;;;;;;;;;4.58;83.43;95982.03;4176359;28;5737;-71
2022/01/09 14:33:43;;;;;;;;;;;;;;;4.42;84.27;95984.81;4186366;28;5748;-71
2022/01/09 14:35:50;;;;;;;;;;;;;;;4.19;85.18;95984.78;4183135;28;5796;-72
2022/01/09 14:37:51;;;;;;;;;;;;;;;4.29;84.62;95971.44;4165237;28;5988;-72
2022/01/09 14:40:09;;;;;;;;;;;;;;;4.27;84.82;95979.47;4166015;28;6012;-71
2022/01/09 14:42:11;;;;;;;;;;;;;;;4.10;85.52;95983.19;4164171;28;5857;-71
2022/01/09 14:44:12;;;;;;;;;;;;;;;4.20;85.45;95982.97;4162885;28;5953;-71
2022/01/09 14:46:15;;;;;;;;;;;;;;;4.13;85.70;95977.63;4162064;28;6735;-71
2022/01/09 14:48:23;;;;;;;;;;;;;;;3.84;85.66;95983.47;4180600;28;5765;-71
2022/01/09 14:50:25;;;;;;;;;;;;;;;3.93;85.30;95984.25;4164798;28;6598;-71
2022/01/09 14:52:26;;;;;;;;;;;;;;;3.91;84.68;95981.00;4164742;28;5862;-71
2022/01/09 14:54:28;;;;;;;;;;;;;;;3.94;84.32;95983.28;4182864;28;5744;-71
2022/01/09 14:56:30;;;;;;;;;;;;;;;3.90;84.95;95980.19;4183025;28;5756;-71
2022/01/09 14:58:32;;;;;;;;;;;;;;;3.87;85.84;95983.16;4182835;28;5737;-71
2022/01/09 15:00:34;;;;;;;;;;;;;;;3.87;85.97;95991.00;4164720;28;5834;-71
2022/01/09 15:02:37;;;;;;;;;;;;;;;3.82;87.25;95995.91;4186291;28;5730;-71
2022/01/09 15:04:39;;;;;;;;;;;;;;;3.83;87.44;95989.69;4181378;28;5752;-72
2022/01/09 15:06:41;;;;;;;;;;;;;;;3.87;87.34;95991.00;4184630;28;5090;-72
2022/01/09 15:08:43;;;;;;;;;;;;;;;3.79;86.15;95998.88;4182679;28;7826;-71
2022/01/09 15:10:44;;;;;;;;;;;;;;;3.76;86.38;95996.63;4183284;28;6848;-71
2022/01/09 15:12:46;;;;;;;;;;;;;;;3.63;86.78;95998.97;4181669;28;5744;-71
2022/01/09 15:14:47;;;;;;;;;;;;;;;3.66;86.47;96001.22;4163494;28;5962;-71
2022/01/09 15:16:49;;;;;;;;;;;;;;;3.70;86.62;96005.13;4180919;28;5742;-70
2022/01/09 15:18:52;;;;;;;;;;;;;;;3.66;86.53;95999.44;4182842;28;5743;-71
2022/01/09 15:20:53;;;;;;;;;;;;;;;3.49;88.55;96008.28;4160883;28;5851;-70
2022/01/09 15:22:57;;;;;;;;;;;;;;;3.35;89.45;96007.19;4164138;28;5902;-70
2022/01/09 15:24:59;;;;;;;;;;;;;;;3.43;89.47;96001.13;4164819;28;6464;-70
2022/01/09 15:27:01;;;;;;;;;;;;;;;3.55;88.28;96009.44;4170626;28;5847;-71
2022/01/09 15:29:03;;;;;;;;;;;;;;;3.61;87.64;96016.59;4148077;28;5867;-71
2022/01/09 15:31:06;;;;;;;;;;;;;;;3.48;87.87;96015.31;4164318;28;5898;-71
2022/01/09 15:33:10;;;;;;;;;;;;;;;3.63;87.14;96022.47;4164413;28;5839;-71
2022/01/09 15:35:12;;;;;;;;;;;;;;;3.64;86.91;96018.88;4182313;28;5831;-70
2022/01/09 15:37:13;;;;;;;;;;;;;;;3.80;86.55;96016.19;4164429;28;6664;-71
2022/01/09 15:39:15;;;;;;;;;;;;;;;3.68;86.41;96020.16;4165022;28;5899;-71
2022/01/09 15:41:17;;;;;;;;;;;;;;;3.62;87.50;96018.22;4182450;28;5800;-71
2022/01/09 15:43:18;;;;;;;;;;;;;;;3.70;87.08;96016.38;4182013;28;5801;-70
2022/01/09 15:45:20;;;;;;;;;;;;;;;3.82;86.43;96027.28;4183796;28;5740;-70
2022/01/09 15:47:22;;;;;;;;;;;;;;;3.91;86.11;96018.44;4198470;28;5714;-71
2022/01/09 15:49:24;;;;;;;;;;;;;;;3.75;87.19;96021.13;4198864;28;5721;-71
2022/01/09 15:51:29;;;;;;;;;;;;;;;3.83;86.90;96021.06;4199091;28;5772;-72
2022/01/09 15:53:31;;;;;;;;;;;;;;;4.02;86.25;96014.63;4181211;28;5939;-74
2022/01/09 15:55:33;;;;;;;;;;;;;;;4.07;85.64;96015.72;4199069;28;5873;-73
2022/01/09 15:57:38;;;;;;;;;;;;;;;4.03;85.61;96024.91;4184661;28;5845;-70
2022/01/09 15:59:40;;;;;;;;;;;;;;;4.03;85.88;96022.28;4182329;28;5732;-74
2022/01/09 16:01:42;;;;;;;;;;;;;;;3.80;87.14;96029.25;4182016;28;5776;-73
2022/01/09 16:03:44;;;;;;;;;;;;;;;3.95;86.62;96027.56;4182120;28;5880;-71
2022/01/09 16:05:46;;;;;;;;;;;;;;;4.01;86.78;96020.84;4164496;28;5830;-72
2022/01/09 16:07:48;;;;;;;;;;;;;;;4.09;86.39;96026.84;4182331;28;5756;-72
2022/01/09 16:09:49;;;;;;;;;;;;;;;4.15;86.20;96027.13;4180857;28;5844;-72
2022/01/09 16:11:52;;;;;;;;;;;;;;;4.14;86.23;96025.50;4198711;28;5113;-73
2022/01/09 16:13:55;;;;;;;;;;;;;;;4.04;86.53;96023.09;4198529;28;7777;-72
2022/01/09 16:15:56;;;;;;;;;;;;;;;4.03;86.72;96027.53;4172995;28;5814;-74
2022/01/09 16:17:58;;;;;;;;;;;;;;;4.03;86.46;96030.13;4182040;28;5814;-73
2022/01/09 16:20:00;;;;;;;;;;;;;;;3.96;86.99;96031.78;4182203;28;5737;-72
2022/01/09 16:22:03;;;;;;;;;;;;;;;3.99;86.81;96033.28;4182214;28;5733;-73
2022/01/09 16:24:05;;;;;;;;;;;;;;;3.86;87.30;96039.06;4182016;28;5819;-74
2022/01/09 16:26:06;;;;;;;;;;;;;;;3.89;87.33;96043.13;4164135;28;5845;-73
2022/01/09 16:28:09;;;;;;;;;;;;;;;3.95;86.99;96039.81;4164041;28;5849;-74
2022/01/09 16:30:11;;;;;;;;;;;;;;;4.01;86.64;96039.97;4182787;28;6579;-73
2022/01/09 16:32:13;;;;;;;;;;;;;;;3.90;86.72;96035.09;4182076;28;5897;-74
2022/01/09 16:34:15;;;;;;;;;;;;;;;3.89;87.40;96038.72;4182268;28;6261;-73
2022/01/09 16:36:22;;;;;;;;;;;;;;;3.93;87.17;96034.75;4164063;28;5862;-73
2022/01/09 16:38:24;;;;;;;;;;;;;;;3.95;87.00;96032.78;4185055;28;5717;-72
2022/01/09 16:40:27;;;;;;;;;;;;;;;3.92;87.33;96027.91;4185060;28;5803;-72
2022/01/09 16:42:32;;;;;;;;;;;;;;;3.91;87.86;96031.50;4185095;28;5741;-75
2022/01/09 16:44:33;;;;;;;;;;;;;;;3.90;87.79;96035.09;4184601;28;5852;-72
2022/01/09 16:46:37;;;;;;;;;;;;;;;3.90;88.28;96029.88;4184868;28;5748;-73
2022/01/09 16:48:39;;;;;;;;;;;;;;;4.01;87.81;96047.81;4199850;28;5799;-74
2022/01/09 16:50:44;;;;;;;;;;;;;;;4.02;87.56;96044.22;4167201;28;5838;-75
2022/01/09 16:52:46;;;;;;;;;;;;;;;3.96;87.47;96041.44;4149580;28;6009;-74
2022/01/09 16:54:48;;;;;;;;;;;;;;;3.61;87.95;96042.72;4180019;28;5784;-74
2022/01/09 16:56:51;;;;;;;;;;;;;;;3.45;87.94;96038.38;4177569;28;5721;-74
2022/01/09 16:58:55;;;;;;;;;;;;;;;3.37;88.44;96044.41;4147350;28;5938;-73
2022/01/09 17:00:57;;;;;;;;;;;;;;;3.36;88.37;96047.19;4174324;28;5763;-73
2022/01/09 17:03:01;;;;;;;;;;;;;;;3.34;88.73;96049.16;4180762;28;5741;-74
2022/01/09 17:05:04;;;;;;;;;;;;;;;3.52;88.11;96051.59;4154922;28;5983;-73
2022/01/09 17:07:06;;;;;;;;;;;;;;;3.63;87.46;96046.81;4151109;28;6874;-74
2022/01/09 17:09:10;;;;;;;;;;;;;;;3.60;87.42;96054.97;4187671;28;5882;-72
2022/01/09 17:11:15;;;;;;;;;;;;;;;3.47;88.05;96054.69;4183675;28;5752;-74
2022/01/09 17:13:17;;;;;;;;;;;;;;;3.42;88.45;96062.22;4183944;28;5837;-73
2022/01/09 17:15:19;;;;;;;;;;;;;;;3.58;88.66;96056.13;4184379;28;5768;-73
2022/01/09 17:17:22;;;;;;;;;;;;;;;3.37;88.89;96054.06;4177891;28;5756;-73
2022/01/09 17:19:24;;;;;;;;;;;;;;;3.10;89.83;96053.44;4156829;28;5874;-74
2022/01/09 17:21:27;;;;;;;;;;;;;;;3.40;89.15;96054.56;4166220;28;5920;-73
2022/01/09 17:23:29;;;;;;;;;;;;;;;3.51;88.60;96063.81;4178046;28;5748;-71
2022/01/09 17:25:32;;;;;;;;;;;;;;;3.68;88.14;96072.44;4162834;28;6570;-72
2022/01/09 17:27:39;;;;;;;;;;;;;;;3.62;88.57;96067.88;4181429;28;5116;-72
2022/01/09 17:29:47;;;;;;;;;;;;;;;3.73;87.79;96064.91;4180228;28;5855;-73
2022/01/09 17:31:54;;;;;;;;;;;;;;;3.86;87.05;96070.44;4177883;28;5948;-73
2022/01/09 17:33:58;;;;;;;;;;;;;;;3.76;87.83;96075.84;4182269;28;5748;-73
2022/01/09 17:36:00;;;;;;;;;;;;;;;3.77;87.70;96060.97;4184300;28;5102;-72
2022/01/09 17:38:07;;;;;;;;;;;;;;;3.71;87.30;96065.06;4182553;28;5756;-73
2022/01/09 17:40:09;;;;;;;;;;;;;;;3.52;88.02;96067.28;4143649;28;5749;-73
2022/01/09 17:42:11;;;;;;;;;;;;;;;3.40;89.26;96070.22;4177630;28;5772;-73
2022/01/09 17:44:15;;;;;;;;;;;;;;;3.41;88.65;96071.84;4195805;28;5804;-74
2022/01/09 17:46:18;;;;;;;;;;;;;;;3.18;89.60;96071.72;4178882;28;5736;-73
2022/01/09 17:48:20;;;;;;;;;;;;;;;3.43;88.52;96080.34;4162613;28;5880;-72
2022/01/09 17:50:22;;;;;;;;;;;;;;;3.53;88.47;96080.16;4182813;28;5765;-72
2022/01/09 17:52:24;;;;;;;;;;;;;;;3.44;88.21;96073.31;4181112;28;5752;-74
2022/01/09 17:54:28;;;;;;;;;;;;;;;3.55;87.91;96065.13;4174742;28;6441;-72
2022/01/09 17:56:31;;;;;;;;;;;;;;;3.73;87.44;96064.91;4196401;28;5908;-73
2022/01/09 17:58:33;;;;;;;;;;;;;;;3.80;86.72;96058.84;4175642;28;6513;-72
2022/01/09 18:00:37;;;;;;;;;;;;;;;3.84;86.61;96058.50;4163451;28;5107;-74
2022/01/09 18:02:41;;;;;;;;;;;;;;;3.89;86.51;96064.03;4164261;28;8544;-73
2022/01/09 18:04:44;;;;;;;;;;;;;;;3.86;86.90;96064.38;4162896;28;5847;-72
2022/01/09 18:06:47;;;;;;;;;;;;;;;3.76;86.55;96065.41;4163654;28;5772;-72
2022/01/09 18:08:52;;;;;;;;;;;;;;;3.66;87.07;96064.78;4180703;28;5855;-71
2022/01/09 18:10:56;;;;;;;;;;;;;;;3.53;87.61;96059.25;4167300;28;5837;-71
2022/01/09 18:12:59;;;;;;;;;;;;;;;3.71;86.89;96062.47;4194654;28;5751;-71
2022/01/09 18:15:01;;;;;;;;;;;;;;;3.76;87.06;96073.25;4163516;28;5763;-71
2022/01/09 18:17:03;;;;;;;;;;;;;;;3.78;86.93;96073.06;4161514;28;5864;-71
2022/01/09 18:19:09;;;;;;;;;;;;;;;3.85;86.72;96074.03;4159059;28;5860;-68
2022/01/09 18:21:11;;;;;;;;;;;;;;;3.89;86.67;96069.28;4154145;28;5873;-69
2022/01/09 18:23:12;;;;;;;;;;;;;;;3.92;86.61;96061.91;4161430;28;5891;-69
2022/01/09 18:25:14;;;;;;;;;;;;;;;3.97;86.04;96072.69;4161227;28;5892;-71
2022/01/09 18:27:16;;;;;;;;;;;;;;;3.66;86.73;96069.19;4162444;28;6076;-70
2022/01/09 18:29:21;;;;;;;;;;;;;;;3.57;87.15;96063.16;4162245;28;5918;-71
2022/01/09 18:31:26;;;;;;;;;;;;;;;3.67;87.06;96061.16;4159003;28;5825;-68
2022/01/09 18:33:28;;;;;;;;;;;;;;;3.53;87.74;96064.47;4161059;28;5787;-70
2022/01/09 18:35:30;;;;;;;;;;;;;;;3.45;88.06;96065.31;4162251;28;5833;-70
2022/01/09 18:37:32;;;;;;;;;;;;;;;3.42;87.96;96068.25;4165239;28;5837;-70
2022/01/09 18:39:37;;;;;;;;;;;;;;;3.59;87.60;96070.81;4189289;28;5807;-70
2022/01/09 18:41:40;;;;;;;;;;;;;;;3.63;87.24;96079.97;4193522;28;5126;-72
2022/01/09 18:43:42;;;;;;;;;;;;;;;3.58;87.70;96077.03;4160920;28;5949;-70
2022/01/09 18:45:44;;;;;;;;;;;;;;;3.62;87.48;96073.09;4161084;28;5732;-72
2022/01/09 18:47:45;;;;;;;;;;;;;;;3.86;86.80;96080.91;4165506;28;5784;-73
2022/01/09 18:49:52;;;;;;;;;;;;;;;3.96;86.79;96081.47;4164218;28;6469;-70
2022/01/09 18:51:56;;;;;;;;;;;;;;;3.95;86.76;96079.84;4171100;28;5665;-69
2022/01/09 18:53:58;;;;;;;;;;;;;;;3.95;86.79;96084.28;4167093;28;5764;-71
2022/01/09 18:56:00;;;;;;;;;;;;;;;3.88;86.67;96084.16;4167393;28;5739;-71
2022/01/09 18:58:02;;;;;;;;;;;;;;;3.83;87.17;96089.06;4166711;28;5751;-70
2022/01/09 19:00:05;;;;;;;;;;;;;;;3.77;87.51;96090.56;4165083;28;5726;-74
2022/01/09 19:02:09;;;;;;;;;;;;;;;3.77;87.11;96085.31;4162149;28;5802;-71
2022/01/09 19:04:14;;;;;;;;;;;;;;;3.37;88.69;96088.81;4183730;28;5775;-72
2022/01/09 19:06:16;;;;;;;;;;;;;;;3.67;87.83;96099.56;4181469;28;5106;-71
2022/01/09 19:08:22;;;;;;;;;;;;;;;3.86;87.50;96096.59;4181836;28;7830;-70
2022/01/09 19:10:26;;;;;;;;;;;;;;;3.95;86.99;96085.09;4183010;28;5451;-70
2022/01/09 19:12:28;;;;;;;;;;;;;;;3.99;87.72;96085.59;4164289;28;8032;-75
2022/01/09 19:14:32;;;;;;;;;;;;;;;4.01;87.35;96081.81;4167133;28;5652;-75
2022/01/09 19:16:34;;;;;;;;;;;;;;;4.03;87.22;96090.28;4166194;28;5977;-75
2022/01/09 19:18:39;;;;;;;;;;;;;;;4.08;87.05;96088.00;4148303;28;5914;-75
2022/01/09 19:20:40;;;;;;;;;;;;;;;3.89;88.09;96093.63;4165142;28;5879;-75
2022/01/09 19:22:47;;;;;;;;;;;;;;;3.99;88.10;96099.47;4182104;28;5645;-75
2022/01/09 19:24:51;;;;;;;;;;;;;;;4.00;87.94;96088.03;4182734;28;6337;-72
2022/01/09 19:26:54;;;;;;;;;;;;;;;4.01;88.00;96092.28;4182189;28;5638;-73
2022/01/09 19:28:56;;;;;;;;;;;;;;;3.90;88.63;96097.88;4165254;28;5916;-74
2022/01/09 19:31:03;;;;;;;;;;;;;;;4.07;87.90;96094.19;4194589;28;5822;-72
2022/01/09 19:33:05;;;;;;;;;;;;;;;4.14;87.57;96093.53;4182810;28;6343;-69
2022/01/09 19:35:07;;;;;;;;;;;;;;;4.16;87.41;96086.31;4158600;28;5747;-69
2022/01/09 19:37:09;;;;;;;;;;;;;;;4.08;87.50;96087.19;4159172;28;5347;-68
2022/01/09 19:39:11;;;;;;;;;;;;;;;4.16;87.43;96081.09;4182356;28;7711;-69
2022/01/09 19:41:13;;;;;;;;;;;;;;;4.14;87.43;96083.88;4183183;28;5638;-69
2022/01/09 19:43:14;;;;;;;;;;;;;;;4.15;87.12;96082.06;4179940;28;5674;-68
2022/01/09 19:45:18;;;;;;;;;;;;;;;4.15;87.74;96097.78;4185318;28;5645;-69
2022/01/09 19:47:19;;;;;;;;;;;;;;;4.21;87.28;96084.03;4164743;28;5743;-69
2022/01/09 19:49:24;;;;;;;;;;;;;;;4.09;87.37;96086.19;4183445;28;5662;-69
2022/01/09 19:51:25;;;;;;;;;;;;;;;4.12;87.41;96078.00;4185372;28;5665;-69
2022/01/09 19:53:27;;;;;;;;;;;;;;;4.21;87.33;96084.03;4184266;28;5736;-69
2022/01/09 19:55:28;;;;;;;;;;;;;;;4.19;87.10;96081.59;4184407;28;5689;-69
2022/01/09 19:57:30;;;;;;;;;;;;;;;4.12;87.41;96080.63;4184211;28;5645;-68
2022/01/09 19:59:35;;;;;;;;;;;;;;;3.90;88.14;96082.19;4172093;28;5571;-69
2022/01/09 20:01:38;;;;;;;;;;;;;;;4.01;87.88;96079.19;4179440;28;7399;-69
2022/01/09 20:03:40;;;;;;;;;;;;;;;4.14;87.37;96076.03;4179292;28;5778;-67
2022/01/09 20:05:42;;;;;;;;;;;;;;;4.19;87.21;96080.75;4162872;28;6397;-67
2022/01/09 20:07:45;;;;;;;;;;;;;;;4.20;87.21;96083.22;4179717;28;5843;-69
2022/01/09 20:09:49;;;;;;;;;;;;;;;4.05;88.01;96077.03;4193326;28;5815;-69
2022/01/09 20:11:53;;;;;;;;;;;;;;;3.98;88.48;96074.31;4163759;28;6609;-69
2022/01/09 20:13:56;;;;;;;;;;;;;;;4.04;88.30;96073.63;4186581;28;5712;-68
2022/01/09 20:15:57;;;;;;;;;;;;;;;3.76;89.78;96073.25;4183933;28;5702;-67
2022/01/09 20:18:01;;;;;;;;;;;;;;;3.94;89.03;96065.16;4179808;28;5725;-71
2022/01/09 20:20:05;;;;;;;;;;;;;;;4.12;88.06;96070.16;4189500;28;5643;-71
2022/01/09 20:22:07;;;;;;;;;;;;;;;4.17;87.78;96072.25;4161845;28;5756;-71
2022/01/09 20:24:09;;;;;;;;;;;;;;;4.19;87.54;96070.28;4190111;28;5658;-72
2022/01/09 20:26:13;;;;;;;;;;;;;;;4.25;87.30;96072.22;4187363;28;5642;-71
2022/01/09 20:28:15;;;;;;;;;;;;;;;4.24;87.35;96070.59;4171331;28;5735;-71
2022/01/09 20:30:18;;;;;;;;;;;;;;;4.20;87.27;96071.94;4185753;28;5653;-69
2022/01/09 20:32:19;;;;;;;;;;;;;;;4.18;87.51;96064.22;4187206;28;5630;-69
2022/01/09 20:34:28;;;;;;;;;;;;;;;4.21;87.65;96068.31;4186391;28;5653;-71
2022/01/09 20:36:29;;;;;;;;;;;;;;;4.15;87.79;96069.00;4184715;28;5666;-70
2022/01/09 20:38:34;;;;;;;;;;;;;;;4.04;88.11;96067.56;4170075;28;5853;-70
2022/01/09 20:40:36;;;;;;;;;;;;;;;4.00;88.01;96074.13;4190120;28;5633;-70
2022/01/09 20:42:37;;;;;;;;;;;;;;;3.99;88.34;96069.91;4188630;28;5658;-69
2022/01/09 20:44:39;;;;;;;;;;;;;;;3.96;88.07;96071.03;4186597;28;5653;-70
2022/01/09 20:46:41;;;;;;;;;;;;;;;3.97;88.39;96077.91;4187090;28;5789;-71
2022/01/09 20:48:45;;;;;;;;;;;;;;;3.98;87.92;96086.56;4188313;28;5761;-69
2022/01/09 20:50:47;;;;;;;;;;;;;;;4.00;88.11;96085.41;4192480;28;5810;-69
2022/01/09 20:52:49;;;;;;;;;;;;;;;3.98;87.68;96081.34;4205899;28;5138;-71
2022/01/09 20:54:51;;;;;;;;;;;;;;;3.86;88.01;96096.59;4168053;28;7755;-70
2022/01/09 20:56:52;;;;;;;;;;;;;;;3.84;88.66;96098.53;4186576;28;5665;-71
2022/01/09 20:58:54;;;;;;;;;;;;;;;3.78;88.25;96100.03;4185785;28;5658;-71
2022/01/09 21:00:56;;;;;;;;;;;;;;;3.74;88.15;96100.53;4189372;28;5642;-70
2022/01/09 21:02:58;;;;;;;;;;;;;;;3.67;88.45;96112.63;4186558;28;5745;-69
2022/01/09 21:05:00;;;;;;;;;;;;;;;3.66;88.64;96101.38;4186822;28;5658;-68
2022/01/09 21:07:02;;;;;;;;;;;;;;;3.61;89.03;96108.06;4192469;28;5865;-68
2022/01/09 21:09:04;;;;;;;;;;;;;;;3.64;88.95;96105.94;4168593;28;5849;-68
2022/01/09 21:11:06;;;;;;;;;;;;;;;3.65;89.08;96109.38;4169528;28;5739;-69
2022/01/09 21:13:08;;;;;;;;;;;;;;;3.68;88.67;96114.25;4168489;28;5093;-69
2022/01/09 21:15:10;;;;;;;;;;;;;;;3.66;88.53;96111.81;4186491;28;7735;-69
2022/01/09 21:17:11;;;;;;;;;;;;;;;3.57;88.75;96106.78;4168215;28;6423;-69
2022/01/09 21:19:13;;;;;;;;;;;;;;;3.57;88.71;96119.84;4185969;28;5653;-70
2022/01/09 21:21:14;;;;;;;;;;;;;;;3.57;88.61;96115.44;4187268;28;5638;-69
2022/01/09 21:23:18;;;;;;;;;;;;;;;3.57;88.06;96117.22;4185758;28;5750;-68
2022/01/09 21:25:22;;;;;;;;;;;;;;;3.58;88.29;96124.09;4186317;28;5653;-68
2022/01/09 21:27:24;;;;;;;;;;;;;;;3.63;88.36;96124.41;4186288;28;5650;-69
2022/01/09 21:29:26;;;;;;;;;;;;;;;3.68;87.91;96124.72;4185997;28;5688;-68
2022/01/09 21:31:28;;;;;;;;;;;;;;;3.69;87.95;96131.59;4168091;28;5743;-68
2022/01/09 21:33:29;;;;;;;;;;;;;;;3.73;87.98;96125.03;4186933;28;5706;-68
2022/01/09 21:35:31;;;;;;;;;;;;;;;3.76;88.02;96124.72;4185546;28;5638;-69
2022/01/09 21:37:32;;;;;;;;;;;;;;;3.75;87.85;96131.75;4168299;28;6436;-69
2022/01/09 21:39:34;;;;;;;;;;;;;;;3.82;87.71;96129.25;4184266;28;5762;-69
2022/01/09 21:41:37;;;;;;;;;;;;;;;3.81;87.43;96130.25;4186467;28;5645;-68
2022/01/09 21:43:41;;;;;;;;;;;;;;;3.65;88.17;96135.53;4184987;28;5112;-69
2022/01/09 21:45:43;;;;;;;;;;;;;;;3.70;87.98;96135.81;4184826;28;7911;-68
2022/01/09 21:47:45;;;;;;;;;;;;;;;3.73;87.89;96144.13;4186244;28;5645;-68
2022/01/09 21:49:49;;;;;;;;;;;;;;;3.79;87.46;96150.50;4184919;28;5645;-69
2022/01/09 21:51:51;;;;;;;;;;;;;;;3.82;87.46;96152.78;4184095;28;5184;-66
